메인 페이지
METAR-TAF:

METAR-TAF

공항 :

Ocean County, 뉴저지, 미국

위도: 39-55-39N, 경도: 074-17-33W, 고도: 25m

현재 날씨관측

예보는 1 시간 4분 전, 09:56시(UTC)에 발표되었습니다.
북동6kt
온도 8°C
습도 93%
기압 1015 hPa
시정: 11.3km
고도 300ft 상공 흐림

METAR: KMJX 300956Z AUTO 05006KT 7SM OVC003 08/07 A2996 RMK AO2 SLP148 T00780072

시각: 07:00 (11:00 UTC)


TAF: 누락

4,000개 이상의 공항 관측 자료 및 예보 (METAR 및 TAF 보고).

지도상에서 검색 가능한 기상관측소가 노란 점과 빨간 점으로 표시되어 있습니다.

기상관측소 명을 보려면 표시 위로 마우스를 이동하세요.

날씨 관측과 예보를 보려면 클릭하세요.

지도 변경 : 확대하려면 엑스 표시가 있는 녹색 버튼, 축소하려면 빼기 표시가 있는 녹색 버튼, 다음 페이지의 지도를 보려면 녹색 화살표를 클릭하세요.


METAR-TAF: